Time;durP1;ratioP1;P1;durP2;ratioP2;P2;SDS_P1;SDS_P2;PMS_P1;PMS_P2;Temp;Humidity;BMP_temperature;BMP_pressure;BME280_temperature;BME280_humidity;BME280_pressure;Samples;Min_cycle;Max_cycle;Signal;HPM_P1;HPM_P2
2023/04/09 00:01:03;;;;;;;46.28;32.92;;;;;;;7.16;100.00;101780.78;5062069;28;20104;-80
2023/04/09 00:03:29;;;;;;;46.67;31.08;;;;;;;7.18;100.00;101797.97;5052914;28;20214;-80
2023/04/09 00:05:56;;;;;;;43.63;31.95;;;;;;;7.09;100.00;101798.59;5062484;28;20411;-80
2023/04/09 00:08:24;;;;;;;49.53;34.55;;;;;;;6.94;100.00;101794.44;5061900;28;20183;-79
2023/04/09 00:10:51;;;;;;;47.70;34.00;;;;;;;6.91;100.00;101797.25;5062021;28;20076;-80
2023/04/09 00:13:17;;;;;;;47.20;33.22;;;;;;;6.89;100.00;101793.91;5061402;28;20099;-80
2023/04/09 00:15:44;;;;;;;47.50;33.47;;;;;;;6.82;100.00;101798.69;5059964;28;20044;-80
2023/04/09 00:18:11;;;;;;;46.75;34.20;;;;;;;6.77;100.00;101802.53;5061376;28;20048;-79
2023/04/09 00:20:37;;;;;;;49.33;34.85;;;;;;;6.65;100.00;101801.59;5061546;28;20079;-80
2023/04/09 00:23:07;;;;;;;48.45;34.50;;;;;;;6.62;100.00;101796.59;5064911;28;20049;-80
2023/04/09 00:25:36;;;;;;;48.53;35.10;;;;;;;6.62;100.00;101799.19;5061833;28;20501;-80
2023/04/09 00:28:08;;;;;;;49.58;34.67;;;;;;;6.51;100.00;101791.28;5062625;28;20048;-82
2023/04/09 00:30:37;;;;;;;49.38;34.83;;;;;;;6.37;100.00;101789.59;5062770;28;20041;-79
2023/04/09 00:33:04;;;;;;;49.33;35.55;;;;;;;6.30;100.00;101796.94;5063332;28;20079;-79
2023/04/09 00:35:30;;;;;;;51.00;36.50;;;;;;;6.25;100.00;101799.03;5064790;28;20077;-81
2023/04/09 00:37:57;;;;;;;50.75;35.53;;;;;;;6.17;100.00;101803.03;5064063;28;20057;-81
2023/04/09 00:40:24;;;;;;;51.03;37.35;;;;;;;6.20;100.00;101798.47;5066086;28;20048;-80
2023/04/09 00:42:52;;;;;;;52.33;37.65;;;;;;;6.19;100.00;101796.81;5065848;28;20053;-80
2023/04/09 00:45:18;;;;;;;51.63;36.20;;;;;;;6.18;100.00;101797.75;5065099;28;20105;-81
2023/04/09 00:47:45;;;;;;;53.08;36.17;;;;;;;6.13;100.00;101797.25;5064502;28;20045;-79
2023/04/09 00:50:12;;;;;;;54.28;38.17;;;;;;;6.09;100.00;101802.72;5064799;28;20045;-79
2023/04/09 00:52:38;;;;;;;56.53;38.10;;;;;;;6.07;100.00;101805.44;5064665;28;20048;-80
2023/04/09 00:55:06;;;;;;;56.47;39.53;;;;;;;6.03;100.00;101806.56;5062640;28;20162;-79
2023/04/09 00:57:32;;;;;;;53.90;37.30;;;;;;;6.06;100.00;101797.72;5061069;28;20048;-82
2023/04/09 01:00:01;;;;;;;57.15;39.45;;;;;;;6.05;100.00;101794.28;5059699;28;20072;-80
2023/04/09 01:02:29;;;;;;;55.08;38.30;;;;;;;6.14;100.00;101804.09;5049350;28;20395;-78
2023/04/09 01:04:56;;;;;;;55.00;39.95;;;;;;;6.21;100.00;101796.72;5057592;28;20083;-80
2023/04/09 01:07:36;;;;;;;52.28;39.38;;;;;;;6.09;100.00;101793.16;5058535;28;20084;-80
2023/04/09 01:10:12;;;;;;;51.33;37.05;;;;;;;6.00;100.00;101793.75;5059250;28;20132;-81
2023/04/09 01:12:48;;;;;;;56.25;39.00;;;;;;;5.85;100.00;101787.72;5058546;28;20060;-78
2023/04/09 01:15:22;;;;;;;54.40;39.85;;;;;;;5.80;100.00;101786.34;5058789;28;20094;-81
2023/04/09 01:17:53;;;;;;;57.95;40.72;;;;;;;5.77;100.00;101800.34;5059991;28;20445;-79
2023/04/09 01:20:29;;;;;;;54.55;39.22;;;;;;;5.75;100.00;101798.78;5060312;28;20330;-79
2023/04/09 01:23:01;;;;;;;53.40;38.15;;;;;;;5.76;100.00;101785.72;5072962;28;20041;-80
2023/04/09 01:25:43;;;;;;;52.50;38.33;;;;;;;5.76;100.00;101797.84;5073244;28;20053;-78
2023/04/09 01:28:18;;;;;;;52.17;38.75;;;;;;;5.79;100.00;101797.66;5072654;28;20410;-79
2023/04/09 01:30:48;;;;;;;50.40;37.28;;;;;;;5.76;100.00;101800.44;5071841;28;20044;-80
2023/04/09 01:33:16;;;;;;;54.28;37.85;;;;;;;5.77;100.00;101796.94;5072658;28;20101;-78
2023/04/09 01:35:48;;;;;;;53.97;38.22;;;;;;;5.71;100.00;101802.50;5069447;28;20076;-80
2023/04/09 01:38:16;;;;;;;53.88;39.05;;;;;;;5.69;100.00;101807.78;5066841;28;20049;-81
2023/04/09 01:40:43;;;;;;;54.30;38.28;;;;;;;5.71;100.00;101807.69;5068705;28;20492;-79
2023/04/09 01:43:11;;;;;;;50.28;37.35;;;;;;;5.67;100.00;101805.28;5071750;28;20060;-80
2023/04/09 01:45:40;;;;;;;57.55;39.33;;;;;;;5.70;100.00;101806.03;5068880;28;20295;-79
2023/04/09 01:48:07;;;;;;;53.72;37.28;;;;;;;5.67;100.00;101807.09;5065443;28;20067;-79
2023/04/09 01:50:33;;;;;;;51.13;38.17;;;;;;;5.63;100.00;101806.44;5065037;28;20531;-79
2023/04/09 01:53:01;;;;;;;55.63;36.90;;;;;;;5.67;100.00;101805.28;5065018;28;20071;-81
2023/04/09 01:55:28;;;;;;;54.58;37.15;;;;;;;5.66;100.00;101802.81;5055165;28;20049;-80
2023/04/09 01:57:54;;;;;;;50.58;37.35;;;;;;;5.63;100.00;101801.25;5063559;28;20112;-80
2023/04/09 02:00:21;;;;;;;52.17;37.38;;;;;;;5.63;100.00;101800.41;5062656;28;20132;-80
2023/04/09 02:02:55;;;;;;;53.00;37.50;;;;;;;5.62;100.00;101796.97;5064993;28;20458;-80
2023/04/09 02:05:26;;;;;;;51.13;37.22;;;;;;;5.61;100.00;101803.09;5064557;28;20127;-80
2023/04/09 02:07:56;;;;;;;51.03;37.95;;;;;;;5.61;100.00;101797.91;5064504;28;20073;-81
2023/04/09 02:10:26;;;;;;;53.38;37.85;;;;;;;5.62;100.00;101804.78;5064156;28;20677;-79
2023/04/09 02:12:55;;;;;;;56.40;38.30;;;;;;;5.69;100.00;101805.19;5064015;28;20083;-80
2023/04/09 02:15:23;;;;;;;54.95;38.95;;;;;;;5.72;100.00;101801.56;5062802;28;20121;-80
2023/04/09 02:17:51;;;;;;;52.95;38.38;;;;;;;5.70;100.00;101801.66;5064016;28;20084;-79
2023/04/09 02:20:18;;;;;;;51.28;37.53;;;;;;;5.67;100.00;101802.69;5063390;28;20044;-79
2023/04/09 02:22:45;;;;;;;58.05;39.58;;;;;;;5.64;100.00;101797.72;5064733;28;20367;-78
2023/04/09 02:25:11;;;;;;;57.90;39.75;;;;;;;5.68;100.00;101793.13;5062433;28;20104;-79
2023/04/09 02:27:38;;;;;;;54.80;38.28;;;;;;;5.66;100.00;101790.66;5062017;28;20141;-79
2023/04/09 02:30:06;;;;;;;52.40;38.33;;;;;;;5.63;100.00;101795.22;5063112;28;20123;-79
2023/04/09 02:32:32;;;;;;;54.97;38.78;;;;;;;5.53;100.00;101789.75;5064492;28;20432;-79
2023/04/09 02:35:00;;;;;;;54.88;38.50;;;;;;;5.50;100.00;101792.53;5064403;28;20061;-80
2023/04/09 02:37:27;;;;;;;52.83;39.00;;;;;;;5.48;100.00;101793.56;5063847;28;20076;-80
2023/04/09 02:39:53;;;;;;;53.92;37.78;;;;;;;5.47;100.00;101795.31;5063000;28;20124;-79
2023/04/09 02:42:20;;;;;;;55.17;38.83;;;;;;;5.41;100.00;101785.31;5063279;28;20127;-80
2023/04/09 02:44:47;;;;;;;54.75;37.17;;;;;;;5.39;100.00;101784.56;5064186;28;20045;-80
2023/04/09 02:47:14;;;;;;;56.38;38.47;;;;;;;5.34;100.00;101784.03;5062735;28;20119;-78
2023/04/09 02:49:40;;;;;;;52.55;38.40;;;;;;;5.29;100.00;101773.91;5062786;28;20057;-80
2023/04/09 02:52:09;;;;;;;56.90;38.15;;;;;;;5.31;100.00;101781.63;5062980;28;20401;-79
2023/04/09 02:54:36;;;;;;;51.88;38.08;;;;;;;5.24;100.00;101772.53;5060826;28;20095;-79
2023/04/09 02:57:03;;;;;;;60.05;39.45;;;;;;;5.26;100.00;101776.69;5059622;28;20132;-81
2023/04/09 02:59:31;;;;;;;57.05;39.63;;;;;;;5.26;100.00;101770.69;5054575;28;20052;-80
2023/04/09 03:01:58;;;;;;;57.47;40.28;;;;;;;5.23;100.00;101776.06;5062065;28;20320;-80
2023/04/09 03:04:25;;;;;;;58.40;41.13;;;;;;;5.16;100.00;101783.41;5063245;28;20113;-79
2023/04/09 03:06:51;;;;;;;55.75;39.63;;;;;;;5.13;100.00;101782.75;5063475;28;20135;-80
2023/04/09 03:09:19;;;;;;;58.58;41.30;;;;;;;5.11;100.00;101776.81;5063329;28;20143;-80
2023/04/09 03:11:46;;;;;;;59.97;39.60;;;;;;;5.09;100.00;101778.69;5060518;28;20084;-81
2023/04/09 03:14:12;;;;;;;55.67;39.60;;;;;;;5.07;100.00;101783.13;5062173;28;20080;-79
2023/04/09 03:16:39;;;;;;;59.35;40.70;;;;;;;5.00;100.00;101780.91;5063458;28;20088;-79
2023/04/09 03:19:06;;;;;;;57.65;39.33;;;;;;;4.94;100.00;101780.44;5062500;28;20077;-80
2023/04/09 03:21:32;;;;;;;56.35;38.83;;;;;;;4.82;100.00;101768.19;5062706;28;20072;-79
2023/04/09 03:23:59;;;;;;;54.42;37.92;;;;;;;4.73;100.00;101768.72;5063114;28;20068;-79
2023/04/09 03:26:27;;;;;;;57.55;39.33;;;;;;;4.65;100.00;101774.38;5061936;28;20311;-79
2023/04/09 03:28:53;;;;;;;58.92;39.63;;;;;;;4.54;100.00;101769.81;5061792;28;20072;-79
2023/04/09 03:31:20;;;;;;;53.58;37.83;;;;;;;4.52;100.00;101773.41;5061607;28;20084;-79
2023/04/09 03:33:46;;;;;;;56.45;38.80;;;;;;;4.47;100.00;101772.84;5060874;28;20049;-79
2023/04/09 03:36:13;;;;;;;54.25;36.97;;;;;;;4.41;100.00;101771.44;5060254;28;20052;-79
2023/04/09 03:38:40;;;;;;;56.15;37.15;;;;;;;4.38;100.00;101765.59;5060326;28;20711;-80
2023/04/09 03:41:06;;;;;;;54.78;36.70;;;;;;;4.29;100.00;101762.63;5059155;28;20135;-78
2023/04/09 03:43:35;;;;;;;55.78;37.63;;;;;;;4.24;100.00;101756.88;5062013;28;20136;-79
2023/04/09 03:46:01;;;;;;;56.35;37.92;;;;;;;4.18;100.00;101759.00;5062821;28;20104;-79
2023/04/09 03:48:28;;;;;;;54.33;37.67;;;;;;;4.18;100.00;101769.34;5062719;28;20080;-78
2023/04/09 03:50:54;;;;;;;55.42;37.67;;;;;;;4.20;100.00;101765.75;5062511;28;20056;-81
2023/04/09 03:53:21;;;;;;;55.70;37.72;;;;;;;4.26;100.00;101770.56;5061726;28;20568;-80
2023/04/09 03:55:47;;;;;;;54.55;37.80;;;;;;;4.21;100.00;101770.03;5063191;28;20073;-79
2023/04/09 03:58:14;;;;;;;53.75;37.53;;;;;;;4.15;100.00;101775.53;5061505;28;20124;-81
2023/04/09 04:00:42;;;;;;;59.65;37.90;;;;;;;4.12;100.00;101780.91;5063112;28;20045;-80
2023/04/09 04:03:09;;;;;;;51.15;35.97;;;;;;;4.10;100.00;101782.72;5062181;28;20416;-78
2023/04/09 04:05:38;;;;;;;56.15;37.53;;;;;;;4.05;100.00;101784.75;5064158;28;20080;-80
2023/04/09 04:08:05;;;;;;;53.92;36.95;;;;;;;3.96;100.00;101773.13;5060312;28;20045;-78
2023/04/09 04:10:33;;;;;;;55.53;36.40;;;;;;;3.94;100.00;101779.31;5061638;28;20486;-79
2023/04/09 04:13:00;;;;;;;50.15;36.15;;;;;;;3.88;100.00;101785.69;5059719;28;20112;-79
2023/04/09 04:15:27;;;;;;;52.47;36.63;;;;;;;3.87;100.00;101785.75;5059544;28;20049;-78
2023/04/09 04:17:55;;;;;;;56.85;37.17;;;;;;;3.88;100.00;101780.50;5060154;28;20434;-78
2023/04/09 04:20:22;;;;;;;55.97;36.90;;;;;;;3.87;100.00;101780.59;5062998;28;20060;-78
2023/04/09 04:22:48;;;;;;;52.90;37.60;;;;;;;3.86;100.00;101773.72;5062205;28;20543;-79
2023/04/09 04:25:15;;;;;;;55.85;37.50;;;;;;;3.85;100.00;101772.06;5062601;28;20045;-80
2023/04/09 04:27:42;;;;;;;58.80;38.92;;;;;;;4.03;100.00;101781.41;5063553;28;20096;-80
2023/04/09 04:30:09;;;;;;;59.83;38.28;;;;;;;3.96;100.00;101769.72;5062759;28;20100;-80
2023/04/09 04:32:36;;;;;;;59.38;38.95;;;;;;;3.91;100.00;101780.31;5063169;28;20113;-80
2023/04/09 04:35:04;;;;;;;56.95;38.67;;;;;;;3.94;100.00;101771.56;5063839;28;20075;-80
2023/04/09 04:37:30;;;;;;;58.78;38.58;;;;;;;3.87;100.00;101775.41;5054806;28;20111;-80
2023/04/09 04:39:57;;;;;;;57.92;38.38;;;;;;;3.84;100.00;101780.75;5063639;28;20087;-79
2023/04/09 04:42:24;;;;;;;56.65;38.42;;;;;;;3.79;100.00;101783.59;5062582;28;20106;-80
2023/04/09 04:44:51;;;;;;;58.08;38.45;;;;;;;3.79;100.00;101793.94;5062639;28;20049;-78
2023/04/09 04:47:18;;;;;;;55.72;38.30;;;;;;;3.75;100.00;101789.88;5063846;28;20045;-79
2023/04/09 04:49:44;;;;;;;52.70;37.38;;;;;;;3.72;100.00;101787.47;5062793;28;20049;-80
2023/04/09 04:52:12;;;;;;;52.70;36.55;;;;;;;3.70;100.00;101794.47;5062213;28;20052;-80
2023/04/09 04:54:40;;;;;;;52.53;36.50;;;;;;;3.69;100.00;101787.63;5061067;28;20112;-78
2023/04/09 04:57:06;;;;;;;53.88;37.28;;;;;;;3.66;100.00;101793.81;5060333;28;20052;-79
2023/04/09 04:59:33;;;;;;;48.30;35.38;;;;;;;3.70;100.00;101793.63;5058696;28;20045;-79
2023/04/09 05:02:01;;;;;;;57.03;36.67;;;;;;;3.67;100.00;101800.66;5060242;28;20491;-80
2023/04/09 05:04:27;;;;;;;52.00;36.15;;;;;;;3.69;100.00;101795.38;5060540;28;20053;-78
2023/04/09 05:06:54;;;;;;;51.20;35.45;;;;;;;3.69;100.00;101781.59;5062041;28;20064;-79
2023/04/09 05:09:22;;;;;;;55.67;38.33;;;;;;;3.71;100.00;101795.31;5061552;28;20075;-79
2023/04/09 05:11:49;;;;;;;48.70;34.47;;;;;;;3.73;100.00;101794.31;5061653;28;20108;-80
2023/04/09 05:14:15;;;;;;;48.75;35.28;;;;;;;3.76;100.00;101788.97;5065374;28;20077;-80
2023/04/09 05:16:42;;;;;;;53.63;36.28;;;;;;;3.79;100.00;101800.88;5064084;28;20077;-79
2023/04/09 05:19:09;;;;;;;51.28;35.50;;;;;;;3.85;100.00;101792.78;5063785;28;20052;-78
2023/04/09 05:21:35;;;;;;;52.50;35.97;;;;;;;3.90;100.00;101795.94;5063660;28;20077;-80
2023/04/09 05:24:02;;;;;;;52.08;35.70;;;;;;;3.93;100.00;101799.22;5063112;28;20083;-80
2023/04/09 05:26:30;;;;;;;47.85;33.28;;;;;;;3.95;100.00;101783.59;5054989;28;20051;-79
2023/04/09 05:28:56;;;;;;;48.78;34.83;;;;;;;4.08;100.00;101797.53;5064018;28;20127;-79
2023/04/09 05:31:23;;;;;;;51.13;33.83;;;;;;;4.17;100.00;101799.59;5063081;28;20104;-80
2023/04/09 05:33:50;;;;;;;53.40;35.20;;;;;;;4.24;100.00;101800.09;5062465;28;20084;-80
2023/04/09 05:36:17;;;;;;;47.53;34.08;;;;;;;4.39;100.00;101798.38;5063534;28;20079;-80
2023/04/09 05:38:44;;;;;;;43.88;31.42;;;;;;;4.43;100.00;101789.50;5062540;28;20073;-79
2023/04/09 05:41:11;;;;;;;42.42;30.38;;;;;;;4.59;100.00;101800.66;5060078;28;20080;-78
2023/04/09 05:43:39;;;;;;;42.40;30.70;;;;;;;4.72;100.00;101801.63;5060435;28;20080;-79
2023/04/09 05:46:08;;;;;;;39.28;29.80;;;;;;;4.84;100.00;101794.84;5061134;28;20061;-79
2023/04/09 05:48:35;;;;;;;36.90;27.70;;;;;;;5.04;100.00;101785.91;5061326;28;20075;-80
2023/04/09 05:51:02;;;;;;;43.40;32.17;;;;;;;5.08;100.00;101784.78;5062700;28;20056;-79
2023/04/09 05:53:30;;;;;;;43.35;30.73;;;;;;;5.26;100.00;101786.25;5061780;28;20148;-80
2023/04/09 05:55:56;;;;;;;40.40;30.77;;;;;;;5.36;100.00;101784.75;5061663;28;20049;-80
2023/04/09 05:58:23;;;;;;;40.53;29.85;;;;;;;5.38;100.00;101785.50;5061612;28;20048;-80
2023/04/09 06:00:51;;;;;;;38.17;28.88;;;;;;;5.54;100.00;101781.03;5061158;28;20094;-80
2023/04/09 06:03:17;;;;;;;51.38;36.45;;;;;;;5.56;100.00;101768.81;5062020;28;20124;-80
2023/04/09 06:05:45;;;;;;;47.45;36.13;;;;;;;5.59;100.00;101776.41;5060279;28;20112;-80
2023/04/09 06:08:12;;;;;;;42.88;31.38;;;;;;;5.77;100.00;101774.38;5059342;28;20053;-78
2023/04/09 06:10:39;;;;;;;40.42;30.27;;;;;;;6.01;100.00;101766.84;5060843;28;20556;-78
2023/04/09 06:13:06;;;;;;;38.15;28.58;;;;;;;6.30;100.00;101764.94;5060359;28;20087;-80
2023/04/09 06:15:32;;;;;;;35.95;28.30;;;;;;;6.82;100.00;101767.47;5061486;28;20123;-80
2023/04/09 06:18:00;;;;;;;36.42;26.88;;;;;;;7.48;100.00;101766.38;5060884;28;20053;-81
2023/04/09 06:20:27;;;;;;;33.58;24.25;;;;;;;8.23;100.00;101759.16;5060645;28;20037;-81
2023/04/09 06:22:53;;;;;;;29.52;22.60;;;;;;;9.83;100.00;101774.66;5060716;28;20139;-80
2023/04/09 06:25:20;;;;;;;27.23;20.83;;;;;;;10.79;96.52;101770.16;5061648;28;20099;-81
2023/04/09 06:27:47;;;;;;;24.80;20.58;;;;;;;11.38;90.47;101773.81;5063944;28;20060;-79
2023/04/09 06:30:13;;;;;;;24.05;19.70;;;;;;;11.25;85.04;101740.84;5065532;28;20071;-79
2023/04/09 06:32:40;;;;;;;27.17;20.42;;;;;;;10.91;82.96;101740.28;5065650;28;20135;-80
2023/04/09 06:35:09;;;;;;;24.83;20.20;;;;;;;10.44;82.65;101744.31;5065317;28;20081;-79
2023/04/09 06:37:35;;;;;;;25.90;19.83;;;;;;;10.56;82.42;101752.94;5066070;28;20048;-79
2023/04/09 06:40:02;;;;;;;26.17;19.73;;;;;;;10.74;80.76;101751.41;5066191;28;20049;-81
2023/04/09 06:42:29;;;;;;;24.08;19.13;;;;;;;10.69;79.77;101750.94;5066294;28;20327;-80
2023/04/09 06:44:56;;;;;;;22.73;18.70;;;;;;;11.10;78.55;101742.19;5066080;28;20483;-80
2023/04/09 06:47:23;;;;;;;23.85;18.38;;;;;;;10.90;78.17;101746.50;5062712;28;20079;-81
2023/04/09 06:49:52;;;;;;;23.70;17.52;;;;;;;11.20;77.14;101748.28;5061313;28;20061;-80
2023/04/09 06:52:24;;;;;;;20.90;17.23;;;;;;;11.48;75.22;101738.00;5061236;28;20114;-80
2023/04/09 06:54:51;;;;;;;22.05;17.17;;;;;;;11.59;74.89;101749.19;5062258;28;20049;-80
2023/04/09 06:57:17;;;;;;;21.75;16.65;;;;;;;11.64;74.81;101744.38;5062570;28;20106;-81
2023/04/09 06:59:44;;;;;;;18.98;15.73;;;;;;;11.81;74.10;101748.16;5061944;28;20057;-80
2023/04/09 07:02:11;;;;;;;22.30;16.67;;;;;;;11.44;74.51;101752.34;5062564;28;20048;-82
2023/04/09 07:04:37;;;;;;;19.80;14.70;;;;;;;11.63;73.59;101749.75;5062764;28;20073;-81
2023/04/09 07:07:04;;;;;;;19.38;14.65;;;;;;;11.59;73.07;101749.19;5063390;28;20124;-81
2023/04/09 07:09:32;;;;;;;16.83;13.30;;;;;;;11.88;71.30;101738.75;5062517;28;20053;-80
2023/04/09 07:11:59;;;;;;;17.73;13.70;;;;;;;11.79;71.95;101751.91;5063902;28;20132;-79
2023/04/09 07:14:25;;;;;;;18.05;13.60;;;;;;;11.67;72.02;101750.31;5062647;28;20135;-79
2023/04/09 07:16:52;;;;;;;17.35;13.82;;;;;;;11.41;72.02;101761.28;5063643;28;20484;-79
2023/04/09 07:19:19;;;;;;;18.35;13.60;;;;;;;11.67;71.16;101760.81;5061017;28;20049;-80
2023/04/09 07:21:45;;;;;;;18.00;14.40;;;;;;;11.72;70.92;101753.38;5063659;28;20285;-80
2023/04/09 07:24:12;;;;;;;17.30;13.60;;;;;;;11.25;71.82;101755.75;5062115;28;20109;-80
2023/04/09 07:26:46;;;;;;;19.40;14.27;;;;;;;11.57;71.56;101766.03;5060628;28;20081;-81
2023/04/09 07:29:13;;;;;;;19.27;14.38;;;;;;;11.96;70.96;101757.28;5062100;28;20048;-79
2023/04/09 07:31:40;;;;;;;20.23;13.90;;;;;;;12.19;70.08;101767.50;5059156;28;20052;-78
2023/04/09 07:34:07;;;;;;;18.13;13.98;;;;;;;13.33;68.18;101748.09;5059483;28;20040;-79
2023/04/09 07:36:34;;;;;;;18.52;14.35;;;;;;;11.96;69.92;101761.69;5060118;28;20049;-79
2023/04/09 07:39:01;;;;;;;20.20;14.98;;;;;;;12.02;69.59;101761.16;5058852;28;20075;-80
2023/04/09 07:41:28;;;;;;;18.67;14.48;;;;;;;12.36;69.86;101763.31;5060280;28;20393;-79
2023/04/09 07:43:56;;;;;;;17.52;13.27;;;;;;;12.27;70.00;101770.25;5059095;28;20080;-80
2023/04/09 07:46:23;;;;;;;18.23;13.63;;;;;;;12.19;69.32;101776.19;5058640;28;20132;-79
2023/04/09 07:48:49;;;;;;;15.95;12.73;;;;;;;12.14;69.53;101769.72;5060422;28;20116;-78
2023/04/09 07:51:16;;;;;;;19.20;13.70;;;;;;;12.28;68.50;101767.50;5058950;28;20060;-78
2023/04/09 07:53:43;;;;;;;16.42;12.60;;;;;;;12.55;69.04;101769.38;5059165;28;20143;-79
2023/04/09 07:56:09;;;;;;;18.45;12.70;;;;;;;12.76;68.49;101761.31;5060681;28;20053;-78
2023/04/09 07:58:36;;;;;;;15.90;12.70;;;;;;;12.85;67.75;101760.44;5060350;28;20077;-80
2023/04/09 08:01:05;;;;;;;18.00;13.13;;;;;;;13.03;67.22;101757.06;5059344;28;20059;-79
2023/04/09 08:03:31;;;;;;;16.75;13.18;;;;;;;12.87;66.90;101762.94;5051566;28;20053;-80
2023/04/09 08:05:58;;;;;;;16.65;12.30;;;;;;;13.52;66.80;101764.59;5058858;28;20116;-80
2023/04/09 08:08:24;;;;;;;16.48;12.40;;;;;;;14.96;64.33;101756.41;5059048;28;20143;-79
2023/04/09 08:10:51;;;;;;;17.10;11.60;;;;;;;15.64;62.25;101752.88;5058253;28;20049;-79
2023/04/09 08:13:18;;;;;;;15.07;11.85;;;;;;;14.12;64.08;101762.25;5056962;28;20085;-79
2023/04/09 08:15:44;;;;;;;13.63;10.98;;;;;;;15.24;62.20;101749.09;5058977;28;20132;-79
2023/04/09 08:18:12;;;;;;;13.07;10.95;;;;;;;15.69;61.45;101753.22;5059020;28;20041;-81
2023/04/09 08:20:43;;;;;;;13.95;11.20;;;;;;;15.30;60.93;101759.00;5059123;28;20157;-79
2023/04/09 08:23:10;;;;;;;14.85;10.85;;;;;;;15.69;60.13;101747.94;5058583;28;20108;-78
2023/04/09 08:25:36;;;;;;;14.00;11.13;;;;;;;15.17;59.49;101753.34;5058851;28;20137;-80
2023/04/09 08:28:03;;;;;;;13.45;11.13;;;;;;;14.11;60.93;101749.22;5060921;28;20112;-79
2023/04/09 08:30:32;;;;;;;14.63;11.15;;;;;;;15.39;61.34;101758.06;5056885;28;20444;-79
2023/04/09 08:32:59;;;;;;;14.65;11.45;;;;;;;13.69;61.36;101755.09;5066839;28;20508;-79
2023/04/09 08:35:28;;;;;;;12.88;10.38;;;;;;;14.43;61.86;101749.50;5062069;28;20473;-79
2023/04/09 08:37:55;;;;;;;12.68;10.18;;;;;;;13.73;61.70;101751.16;5058249;28;20505;-79
2023/04/09 08:40:21;;;;;;;12.73;10.50;;;;;;;15.64;61.85;101766.06;5059028;28;20049;-81
2023/04/09 08:42:55;;;;;;;13.32;10.32;;;;;;;15.91;59.88;101753.41;5057992;28;20124;-79
2023/04/09 08:45:22;;;;;;;12.00;10.32;;;;;;;16.06;59.49;101753.59;5057828;28;20106;-80
2023/04/09 08:47:50;;;;;;;11.85;9.88;;;;;;;16.22;57.97;101739.56;5057696;28;20076;-80
2023/04/09 08:50:17;;;;;;;10.95;9.32;;;;;;;16.61;57.80;101742.31;5058136;28;20056;-80
2023/04/09 08:52:47;;;;;;;11.80;9.45;;;;;;;16.79;56.39;101736.84;5058331;28;20118;-78
2023/04/09 08:55:13;;;;;;;11.75;9.82;;;;;;;16.95;56.01;101742.09;5058328;28;20053;-81
2023/04/09 08:57:40;;;;;;;10.98;9.85;;;;;;;15.14;56.91;101741.31;5057780;28;20079;-80
2023/04/09 09:00:08;;;;;;;13.07;10.45;;;;;;;16.15;57.21;101742.03;5059224;28;20110;-79
2023/04/09 09:02:35;;;;;;;10.77;9.25;;;;;;;15.76;56.49;101733.94;5058201;28;20053;-79
2023/04/09 09:05:03;;;;;;;11.43;8.40;;;;;;;16.46;55.96;101736.06;5058313;28;20099;-80
2023/04/09 09:07:30;;;;;;;13.43;9.02;;;;;;;15.91;55.20;101727.03;5051055;28;20108;-79
2023/04/09 09:10:02;;;;;;;12.15;9.00;;;;;;;14.88;56.74;101732.66;5057350;28;20144;-79
2023/04/09 09:12:37;;;;;;;9.73;8.05;;;;;;;14.50;56.41;101729.47;5057551;28;20091;-78
2023/04/09 09:15:05;;;;;;;10.35;8.27;;;;;;;14.59;55.86;101725.91;5058098;28;20049;-79
2023/04/09 09:17:32;;;;;;;10.88;8.75;;;;;;;14.84;56.46;101729.50;5050441;28;20045;-79
2023/04/09 09:19:59;;;;;;;10.65;8.35;;;;;;;14.73;56.36;101723.66;5059985;28;20049;-80
2023/04/09 09:22:26;;;;;;;10.88;8.48;;;;;;;14.00;56.49;101725.78;5060483;28;20152;-79
2023/04/09 09:24:53;;;;;;;10.18;8.20;;;;;;;13.81;57.09;101719.69;5058226;28;20049;-79
2023/04/09 09:27:39;;;;;;;13.18;9.02;;;;;;;13.62;57.26;101719.84;5059143;28;20112;-78
2023/04/09 09:30:07;;;;;;;9.20;7.22;;;;;;;14.49;55.18;101716.47;5058050;28;20128;-80
2023/04/09 09:32:35;;;;;;;9.07;7.68;;;;;;;14.21;55.09;101706.03;5059187;28;20037;-79
2023/04/09 09:35:04;;;;;;;11.13;8.52;;;;;;;13.77;57.12;101714.88;5061134;28;20060;-78
2023/04/09 09:37:31;;;;;;;13.15;8.30;;;;;;;13.45;57.36;101718.84;5043889;28;20056;-81
2023/04/09 09:39:58;;;;;;;10.55;8.40;;;;;;;13.10;58.23;101726.63;5062803;28;20041;-81
2023/04/09 09:42:25;;;;;;;12.52;8.98;;;;;;;13.30;58.50;101722.94;5060482;28;20076;-82
2023/04/09 09:44:54;;;;;;;10.10;7.93;;;;;;;13.38;56.89;101709.88;5057731;28;20045;-81
2023/04/09 09:47:22;;;;;;;9.32;7.50;;;;;;;13.49;57.46;101712.31;5059934;28;20049;-81
2023/04/09 09:49:51;;;;;;;11.50;7.80;;;;;;;13.21;56.98;101705.44;5062463;28;20492;-78
2023/04/09 09:52:24;;;;;;;9.55;7.60;;;;;;;13.40;56.89;101702.69;5064247;28;20056;-79
2023/04/09 09:54:54;;;;;;;10.10;7.55;;;;;;;14.06;57.49;101710.19;5060208;28;20053;-80
2023/04/09 09:57:27;;;;;;;11.05;7.80;;;;;;;14.20;56.68;101696.47;5063148;28;20068;-80
2023/04/09 10:00:24;;;;;;;11.00;8.18;;;;;;;13.38;56.87;101693.28;5045919;28;20057;-80
2023/04/09 10:02:57;;;;;;;9.50;7.78;;;;;;;13.67;57.20;101703.63;5063141;28;20064;-80
2023/04/09 10:05:26;;;;;;;9.98;7.85;;;;;;;14.05;57.62;101702.47;5065793;28;20052;-79
2023/04/09 10:07:54;;;;;;;10.77;8.75;;;;;;;13.78;56.78;101690.22;5066994;28;20056;-79
2023/04/09 10:10:22;;;;;;;10.05;7.60;;;;;;;13.97;56.98;101699.75;5066043;28;20084;-80
2023/04/09 10:12:50;;;;;;;9.93;7.75;;;;;;;13.72;57.10;101701.34;5067532;28;20064;-80
2023/04/09 10:15:18;;;;;;;10.13;8.00;;;;;;;14.39;58.35;101705.16;5067630;28;20048;-81
2023/04/09 10:17:46;;;;;;;10.80;7.88;;;;;;;14.84;56.76;101691.78;5066806;28;20049;-80
2023/04/09 10:20:19;;;;;;;10.50;8.15;;;;;;;14.66;56.03;101686.56;5064547;28;20055;-81
2023/04/09 10:22:50;;;;;;;9.95;8.13;;;;;;;14.34;56.96;101686.38;5065585;28;20052;-81
2023/04/09 10:25:17;;;;;;;11.30;8.13;;;;;;;13.82;57.07;101702.09;5065432;28;20070;-80
2023/04/09 10:27:45;;;;;;;15.40;8.95;;;;;;;13.69;57.11;101691.97;5066911;28;20116;-80
2023/04/09 10:30:33;;;;;;;9.98;7.68;;;;;;;13.98;58.59;101689.09;5064573;28;20123;-80
2023/04/09 10:33:10;;;;;;;10.68;8.40;;;;;;;13.98;56.98;101680.34;5064404;28;20055;-79
2023/04/09 10:35:37;;;;;;;13.18;8.70;;;;;;;14.08;57.17;101683.72;5064944;28;20089;-80
2023/04/09 10:38:03;;;;;;;9.77;8.30;;;;;;;14.66;58.11;101691.84;5065498;28;20049;-80
2023/04/09 10:40:30;;;;;;;11.77;8.32;;;;;;;15.26;57.03;101687.31;5056930;28;20063;-81
2023/04/09 10:42:59;;;;;;;11.73;9.07;;;;;;;14.19;55.51;101668.50;5064368;28;20059;-78
2023/04/09 10:45:41;;;;;;;10.23;8.50;;;;;;;13.78;56.38;101669.16;5063451;28;20099;-81
2023/04/09 10:48:12;;;;;;;10.60;8.50;;;;;;;14.22;57.46;101673.44;5063957;28;20045;-81
2023/04/09 10:50:39;;;;;;;11.35;8.88;;;;;;;14.54;56.95;101672.03;5063489;28;20060;-80
2023/04/09 10:53:06;;;;;;;9.93;8.32;;;;;;;14.99;56.62;101670.94;5064230;28;20052;-80
2023/04/09 10:55:36;;;;;;;12.30;8.82;;;;;;;14.15;56.92;101672.44;5066462;28;20060;-81
2023/04/09 10:58:04;;;;;;;10.30;8.35;;;;;;;14.62;56.71;101669.47;5066199;28;20048;-81
2023/04/09 11:00:30;;;;;;;10.35;8.63;;;;;;;14.56;56.80;101670.09;5067629;28;20048;-80
2023/04/09 11:03:14;;;;;;;11.55;8.50;;;;;;;14.99;57.19;101661.22;5067166;28;20087;-79
2023/04/09 11:05:43;;;;;;;10.90;8.75;;;;;;;15.20;56.81;101672.13;5066700;28;20048;-79
2023/04/09 11:08:12;;;;;;;10.43;8.77;;;;;;;14.63;55.48;101660.56;5068081;28;20108;-80
2023/04/09 11:10:43;;;;;;;10.63;8.95;;;;;;;14.50;56.28;101660.19;5067418;28;20088;-80
2023/04/09 11:13:11;;;;;;;11.25;8.85;;;;;;;15.13;55.70;101657.09;5063521;28;20059;-80
2023/04/09 11:15:38;;;;;;;12.50;8.55;;;;;;;15.16;55.46;101640.97;5065844;28;20049;-80